createdAt,value
2022-09-01T00:04:30.955Z,100760.84
2022-09-01T00:11:16.547Z,100768.34
2022-09-01T00:18:02.139Z,100772.28
2022-09-01T00:24:50.522Z,100758.53
2022-09-01T00:31:37.137Z,100766.44
2022-09-01T00:38:22.631Z,100759.13
2022-09-01T00:45:13.855Z,100747.72
2022-09-01T00:52:07.354Z,100739.72
2022-09-01T00:58:53.063Z,100745.66
2022-09-01T01:05:46.841Z,100736.75
2022-09-01T01:12:33.328Z,100744.94
2022-09-01T01:19:40.937Z,100740.34
2022-09-01T01:26:29.066Z,100746.59
2022-09-01T01:33:15.410Z,100738.50
2022-09-01T01:40:02.215Z,100743.22
2022-09-01T01:46:54.925Z,100731.75
2022-09-01T01:53:43.589Z,100734.28
2022-09-01T02:00:34.645Z,100737.06
2022-09-01T02:07:23.952Z,100719.78
2022-09-01T02:14:13.492Z,100750.22
2022-09-01T02:21:06.011Z,100745.00
2022-09-01T02:27:55.576Z,100746.63
2022-09-01T02:34:41.067Z,100704.47
2022-09-01T02:41:29.305Z,100745.38
2022-09-01T03:02:08.412Z,100734.09
2022-09-01T03:08:55.081Z,100728.63
2022-09-01T03:15:41.402Z,100723.47
2022-09-01T03:22:29.851Z,100725.00
2022-09-01T03:29:15.701Z,100726.44
2022-09-01T03:36:01.740Z,100728.34
2022-09-01T03:42:54.004Z,100721.41
2022-09-01T03:49:40.569Z,100728.06
2022-09-01T03:56:27.493Z,100732.56
2022-09-01T04:03:28.563Z,100726.63
2022-09-01T04:10:14.332Z,100723.94
2022-09-01T04:17:12.354Z,100732.56
2022-09-01T04:24:05.294Z,100736.06
2022-09-01T04:30:55.769Z,100718.78
2022-09-01T04:37:43.219Z,100711.53
2022-09-01T04:44:31.353Z,100740.38
2022-09-01T04:51:18.075Z,100753.59
2022-09-01T04:58:17.799Z,100742.09
2022-09-01T05:05:10.268Z,100743.38
2022-09-01T05:11:56.495Z,100760.19
2022-09-01T05:18:48.993Z,100752.53
2022-09-01T05:25:43.998Z,100749.91
2022-09-01T05:32:30.480Z,100757.81
2022-09-01T05:39:16.456Z,100761.25
2022-09-01T05:46:07.412Z,100742.63
2022-09-01T05:52:54.946Z,100763.91
2022-09-01T05:59:41.528Z,100767.75
2022-09-01T06:07:01.788Z,100760.13
2022-09-01T06:13:47.324Z,100770.03
2022-09-01T06:20:33.100Z,100763.75
2022-09-01T06:27:21.882Z,100762.41
2022-09-01T06:34:13.946Z,100775.97
2022-09-01T06:41:05.025Z,100774.78
2022-09-01T06:47:57.657Z,100769.22
2022-09-01T06:54:45.972Z,100775.25
2022-09-01T07:01:32.415Z,100719.78
2022-09-01T07:08:23.538Z,100789.53
2022-09-01T07:22:38.541Z,100801.63
2022-09-01T07:29:37.133Z,100796.88
2022-09-01T07:36:25.920Z,100795.72
2022-09-01T07:43:23.252Z,100809.06
2022-09-01T07:57:56.072Z,100805.28
2022-09-01T08:04:41.825Z,100809.03
2022-09-01T08:11:58.555Z,100808.06
2022-09-01T08:18:53.848Z,100813.56
2022-09-01T08:25:50.713Z,100812.63
2022-09-01T08:32:42.217Z,100819.25
2022-09-01T08:39:28.913Z,100823.50
2022-09-01T08:46:23.145Z,100816.38
2022-09-01T08:53:25.217Z,100816.97
2022-09-01T09:00:15.860Z,100808.06
2022-09-01T09:07:14.276Z,100816.47
2022-09-01T09:14:14.035Z,100806.34
2022-09-01T09:21:01.132Z,100804.28
2022-09-01T09:27:49.896Z,100707.94
2022-09-01T09:34:41.767Z,100783.03
2022-09-01T09:41:27.798Z,100784.28
2022-09-01T09:48:30.624Z,100767.09
2022-09-01T09:55:28.476Z,100769.03
2022-09-01T10:02:31.399Z,100749.19
2022-09-01T10:09:36.273Z,100737.66
2022-09-01T10:16:32.098Z,100755.00
2022-09-01T10:23:18.465Z,100759.44
2022-09-01T10:30:13.894Z,100741.13
2022-09-01T10:37:11.370Z,100730.78
2022-09-01T10:43:59.881Z,100736.47
2022-09-01T10:50:47.864Z,100738.16
2022-09-01T10:57:51.179Z,100713.41
2022-09-01T11:05:14.028Z,100717.06
2022-09-01T11:12:41.995Z,100708.56
2022-09-01T11:19:45.101Z,100706.22
2022-09-01T11:26:50.725Z,100703.06
2022-09-01T11:33:51.152Z,100705.88
2022-09-01T11:40:40.054Z,100691.00
2022-09-01T11:47:31.722Z,100689.78
2022-09-01T11:54:18.826Z,100678.09
2022-09-01T12:01:22.093Z,100664.44
2022-09-01T12:08:18.382Z,100610.97
2022-09-01T12:15:20.664Z,100661.50
2022-09-01T12:22:17.796Z,100608.91
2022-09-01T12:29:03.391Z,100660.28
2022-09-01T12:35:49.687Z,100648.63
2022-09-01T12:42:41.074Z,100618.13
2022-09-01T12:49:45.242Z,100603.66
2022-09-01T12:56:39.086Z,100636.19
2022-09-01T13:03:27.622Z,100628.06
2022-09-01T13:10:13.134Z,100638.44
2022-09-01T13:16:58.641Z,100629.09
2022-09-01T13:23:46.801Z,100618.13
2022-09-01T13:30:32.969Z,100606.47
2022-09-01T13:37:18.479Z,100599.22
2022-09-01T13:44:09.974Z,100606.44
2022-09-01T13:58:01.792Z,100595.03
2022-09-01T14:04:50.474Z,100582.88
2022-09-01T14:11:36.545Z,100581.56
2022-09-01T14:18:22.451Z,100584.06
2022-09-01T14:25:12.235Z,100570.78
2022-09-01T14:31:58.632Z,100584.84
2022-09-01T14:38:44.165Z,100575.16
2022-09-01T14:45:32.530Z,100571.50
2022-09-01T14:52:18.626Z,100572.22
2022-09-01T14:59:05.192Z,100568.22
2022-09-01T15:05:54.185Z,100554.13
2022-09-01T15:12:40.044Z,100557.34
2022-09-01T15:19:25.552Z,100557.28
2022-09-01T15:26:13.626Z,100552.03
2022-09-01T15:32:59.247Z,100498.59
2022-09-01T15:39:44.745Z,100540.56
2022-09-01T15:46:34.577Z,100529.22
2022-09-01T15:53:21.204Z,100503.91
2022-09-01T16:00:09.546Z,100524.69
2022-09-01T16:07:00.217Z,100521.53
2022-09-01T16:13:46.924Z,100509.09
2022-09-01T16:20:52.615Z,100455.19
2022-09-01T16:27:45.860Z,100509.34
2022-09-01T16:34:32.128Z,100517.00
2022-09-01T16:41:39.719Z,100512.97
2022-09-01T16:48:36.177Z,100506.13
2022-09-01T16:55:31.153Z,100504.19
2022-09-01T17:02:32.600Z,100497.31
2022-09-01T17:09:27.786Z,100498.66
2022-09-01T17:16:22.293Z,100487.00
2022-09-01T17:23:09.062Z,100504.75
2022-09-01T17:29:59.893Z,100498.75
2022-09-01T17:36:56.937Z,100504.47
2022-09-01T17:43:56.183Z,100412.78
2022-09-01T17:51:01.966Z,100511.38
2022-09-01T17:57:57.184Z,100520.69
2022-09-01T18:05:06.381Z,100515.13
2022-09-01T18:12:02.488Z,100521.59
2022-09-01T18:18:51.211Z,100530.91
2022-09-01T18:25:47.931Z,100532.94
2022-09-01T18:32:45.227Z,100518.53
2022-09-01T18:39:41.320Z,100549.00
2022-09-01T18:46:38.274Z,100555.69
2022-09-01T18:53:42.257Z,100562.75
2022-09-01T19:00:35.688Z,100559.63
2022-09-01T19:07:31.168Z,100561.81
2022-09-01T19:21:34.190Z,100527.91
2022-09-01T19:28:27.212Z,100571.66
2022-09-01T19:35:19.704Z,100578.91
2022-09-01T19:42:11.339Z,100580.56
2022-09-01T19:49:08.865Z,100577.78
2022-09-01T19:56:04.696Z,100579.44
2022-09-01T20:02:56.550Z,100577.44
2022-09-01T20:09:52.265Z,100517.25
2022-09-01T20:16:44.551Z,100540.50
2022-09-01T20:23:36.714Z,100581.50
2022-09-01T20:30:25.328Z,100569.88
2022-09-01T20:37:23.627Z,100573.09
2022-09-01T20:44:17.082Z,100569.88
2022-09-01T20:51:11.773Z,100526.59
2022-09-01T20:58:09.087Z,100573.59
2022-09-01T21:05:06.245Z,100586.84
2022-09-01T21:12:00.621Z,100592.09
2022-09-01T21:19:01.445Z,100590.09
2022-09-01T21:25:47.531Z,100582.47
2022-09-01T21:32:35.376Z,100572.81
2022-09-01T21:39:23.928Z,100535.41
2022-09-01T21:46:13.722Z,100568.75
2022-09-01T21:52:59.285Z,100516.00
2022-09-01T21:59:47.402Z,100567.06
2022-09-01T22:06:33.747Z,100569.84
2022-09-01T22:13:20.029Z,100446.28
2022-09-01T22:20:13.511Z,100562.06
2022-09-01T22:26:59.073Z,100562.38
2022-09-01T22:33:44.720Z,100492.59
2022-09-01T22:40:32.852Z,100577.03
2022-09-01T22:47:18.480Z,100573.84
2022-09-01T22:54:04.356Z,100576.66
2022-09-01T23:00:59.863Z,100576.97
2022-09-01T23:07:45.922Z,100574.50
2022-09-01T23:14:31.607Z,100569.63
2022-09-01T23:21:23.772Z,100569.16
2022-09-01T23:28:11.401Z,100573.53
2022-09-01T23:34:57.044Z,100474.94
2022-09-01T23:41:45.532Z,100552.16
2022-09-01T23:48:31.128Z,100571.00
2022-09-01T23:55:16.842Z,100559.28
